createdAt,value
2018-03-20T00:02:15.425Z,8.53
2018-03-20T00:04:42.866Z,9.23
2018-03-20T00:07:10.317Z,9.10
2018-03-20T00:09:37.805Z,11.00
2018-03-20T00:12:05.254Z,14.07
2018-03-20T00:14:32.749Z,16.53
2018-03-20T00:17:00.197Z,9.20
2018-03-20T00:19:27.653Z,12.43
2018-03-20T00:21:55.141Z,10.70
2018-03-20T00:24:22.590Z,17.53
2018-03-20T00:26:50.069Z,10.30
2018-03-20T00:29:17.531Z,15.17
2018-03-20T00:31:45.871Z,15.50
2018-03-20T00:34:13.334Z,7.83
2018-03-20T00:36:40.776Z,8.70
2018-03-20T00:39:08.388Z,7.93
2018-03-20T00:41:35.825Z,6.90
2018-03-20T00:44:03.273Z,8.67
2018-03-20T00:46:30.734Z,7.53
2018-03-20T00:48:58.199Z,5.93
2018-03-20T00:51:25.770Z,7.50
2018-03-20T00:53:53.212Z,7.07
2018-03-20T00:56:20.733Z,7.37
2018-03-20T00:58:48.207Z,5.80
2018-03-20T01:01:15.650Z,6.13
2018-03-20T01:03:43.290Z,6.37
2018-03-20T01:06:10.733Z,6.70
2018-03-20T01:08:38.173Z,5.33
2018-03-20T01:11:05.637Z,6.27
2018-03-20T01:13:33.077Z,4.47
2018-03-20T01:16:00.583Z,5.07
2018-03-20T01:18:28.741Z,5.70
2018-03-20T01:20:56.197Z,4.97
2018-03-20T01:23:23.661Z,9.10
2018-03-20T01:25:51.105Z,5.37
2018-03-20T01:28:18.809Z,4.03
2018-03-20T01:30:46.317Z,5.27
2018-03-20T01:33:13.766Z,8.00
2018-03-20T01:35:41.229Z,7.33
2018-03-20T01:38:08.673Z,5.83
2018-03-20T01:40:36.257Z,8.57
2018-03-20T01:43:03.733Z,5.30
2018-03-20T01:45:31.174Z,9.97
2018-03-20T01:47:58.637Z,6.77
2018-03-20T01:50:26.082Z,7.07
2018-03-20T01:53:05.917Z,6.33
2018-03-20T01:55:33.397Z,5.70
2018-03-20T01:58:00.849Z,6.27
2018-03-20T02:00:28.333Z,5.87
2018-03-20T02:02:55.786Z,9.77
2018-03-20T02:05:23.250Z,7.83
2018-03-20T02:07:50.704Z,6.60
2018-03-20T02:10:18.155Z,8.73
2018-03-20T02:12:45.641Z,5.10
2018-03-20T02:15:13.109Z,8.53
2018-03-20T02:17:40.609Z,8.40
2018-03-20T02:20:08.053Z,6.60
2018-03-20T02:22:35.506Z,10.00
2018-03-20T02:25:02.978Z,5.97
2018-03-20T02:27:30.425Z,7.47
2018-03-20T02:29:58.045Z,5.47
2018-03-20T02:32:25.485Z,5.03
2018-03-20T02:34:52.934Z,6.30
2018-03-20T02:37:20.416Z,6.80
2018-03-20T02:39:49.305Z,5.17
2018-03-20T02:42:17.333Z,12.03
2018-03-20T02:44:44.798Z,8.93
2018-03-20T02:47:12.242Z,6.03
2018-03-20T02:49:39.711Z,5.90
2018-03-20T02:52:07.153Z,5.03
2018-03-20T02:54:34.770Z,6.10
2018-03-20T02:57:02.242Z,6.53
2018-03-20T02:59:29.692Z,5.37
2018-03-20T03:01:57.158Z,10.23
2018-03-20T03:04:24.610Z,6.50
2018-03-20T03:06:52.093Z,6.17
2018-03-20T03:09:19.561Z,6.20
2018-03-20T03:11:47.023Z,5.50
2018-03-20T03:14:14.501Z,5.30
2018-03-20T03:16:41.945Z,5.13
2018-03-20T03:19:09.581Z,6.00
2018-03-20T03:21:37.025Z,7.77
2018-03-20T03:24:04.478Z,7.17
2018-03-20T03:26:32.322Z,5.20
2018-03-20T03:28:59.832Z,6.60
2018-03-20T03:31:27.341Z,5.23
2018-03-20T03:33:54.833Z,5.43
2018-03-20T03:36:22.273Z,5.50
2018-03-20T03:38:50.132Z,6.40
2018-03-20T03:41:17.574Z,5.60
2018-03-20T03:43:45.163Z,6.90
2018-03-20T03:46:12.633Z,13.60
2018-03-20T03:48:40.106Z,7.53
2018-03-20T03:51:07.571Z,5.73
2018-03-20T03:53:35.021Z,9.87
2018-03-20T03:56:02.509Z,6.30
2018-03-20T03:58:29.980Z,6.67
2018-03-20T04:00:57.429Z,9.70
2018-03-20T04:03:24.916Z,7.17
2018-03-20T04:05:52.357Z,8.40
2018-03-20T04:08:20.102Z,8.93
2018-03-20T04:10:47.547Z,4.63
2018-03-20T04:13:14.989Z,4.73
2018-03-20T04:15:42.453Z,6.73
2018-03-20T04:18:09.908Z,6.53
2018-03-20T04:20:37.413Z,6.63
2018-03-20T04:23:04.870Z,8.80
2018-03-20T04:25:32.330Z,6.53
2018-03-20T04:27:59.812Z,4.40
2018-03-20T04:30:27.258Z,5.23
2018-03-20T04:32:54.906Z,5.60
2018-03-20T04:35:22.360Z,7.67
2018-03-20T04:37:49.805Z,4.63
2018-03-20T04:40:17.306Z,15.70
2018-03-20T04:42:44.761Z,6.97
2018-03-20T04:45:12.245Z,7.37
2018-03-20T04:47:39.693Z,7.93
2018-03-20T04:50:07.138Z,7.03
2018-03-20T04:52:34.622Z,11.03
2018-03-20T04:55:02.061Z,5.90
2018-03-20T04:57:29.852Z,8.07
2018-03-20T04:59:57.312Z,9.97
2018-03-20T05:02:24.756Z,7.73
2018-03-20T05:04:52.222Z,7.43
2018-03-20T05:07:19.669Z,10.83
2018-03-20T05:09:47.160Z,11.13
2018-03-20T05:12:14.644Z,8.20
2018-03-20T05:14:42.069Z,7.40
2018-03-20T05:17:09.543Z,8.40
2018-03-20T05:22:51.137Z,7.23
2018-03-20T05:25:18.577Z,7.20
2018-03-20T05:27:46.049Z,6.13
2018-03-20T05:30:13.493Z,6.97
2018-03-20T05:32:41.106Z,10.13
2018-03-20T05:35:08.557Z,11.40
2018-03-20T05:37:35.998Z,8.90
2018-03-20T05:40:03.485Z,7.63
2018-03-20T05:42:30.937Z,17.50
2018-03-20T05:44:58.534Z,8.47
2018-03-20T05:50:36.801Z,13.47
2018-03-20T05:53:04.250Z,15.93
2018-03-20T05:55:31.709Z,5.37
2018-03-20T05:57:59.193Z,8.33
2018-03-20T06:00:26.658Z,5.53
2018-03-20T06:02:54.185Z,14.17
2018-03-20T06:05:21.648Z,7.50
2018-03-20T06:07:49.097Z,10.23
2018-03-20T06:10:16.561Z,7.73
2018-03-20T06:12:44.030Z,9.80
2018-03-20T06:15:11.502Z,8.03
2018-03-20T06:17:38.958Z,26.43
2018-03-20T06:20:06.399Z,7.53
2018-03-20T06:22:33.869Z,15.20
2018-03-20T06:25:01.306Z,6.33
2018-03-20T06:27:28.784Z,6.57
2018-03-20T06:29:56.230Z,15.17
2018-03-20T06:32:23.676Z,13.07
2018-03-20T06:34:51.137Z,9.90
2018-03-20T06:37:18.582Z,9.10
2018-03-20T06:39:46.285Z,12.30
2018-03-20T06:42:13.733Z,13.33
2018-03-20T06:44:41.204Z,15.47
2018-03-20T06:47:08.677Z,12.17
2018-03-20T06:49:36.122Z,8.40
2018-03-20T06:52:03.603Z,8.17
2018-03-20T06:54:31.050Z,6.70
2018-03-20T06:56:58.513Z,7.83
2018-03-20T06:59:25.978Z,7.90
2018-03-20T07:01:53.436Z,12.40
2018-03-20T07:04:21.285Z,8.50
2018-03-20T07:06:48.725Z,8.90
2018-03-20T07:09:16.177Z,13.90
2018-03-20T07:11:43.675Z,10.37
2018-03-20T07:14:11.142Z,17.80
2018-03-20T07:16:38.857Z,12.87
2018-03-20T07:19:06.369Z,9.40
2018-03-20T07:21:33.845Z,16.30
2018-03-20T07:24:01.317Z,10.43
2018-03-20T07:26:28.761Z,19.70
2018-03-20T07:28:56.413Z,12.73
2018-03-20T07:31:23.874Z,13.40
2018-03-20T07:33:51.317Z,8.77
2018-03-20T07:36:18.802Z,17.47
2018-03-20T07:38:46.244Z,6.67
2018-03-20T07:41:13.944Z,8.33
2018-03-20T07:43:41.421Z,9.47
2018-03-20T07:46:08.864Z,9.50
2018-03-20T07:48:36.335Z,6.93
2018-03-20T07:51:03.797Z,15.37
2018-03-20T07:53:31.397Z,9.70
2018-03-20T07:55:58.841Z,8.43
2018-03-20T07:58:26.283Z,9.37
2018-03-20T08:00:53.773Z,10.77
2018-03-20T08:03:21.213Z,8.23
2018-03-20T08:05:48.867Z,7.10
2018-03-20T08:08:16.312Z,8.43
2018-03-20T08:10:43.773Z,8.30
2018-03-20T08:13:11.255Z,6.00
2018-03-20T08:15:38.712Z,9.37
2018-03-20T08:18:06.401Z,7.73
2018-03-20T08:20:33.855Z,10.07
2018-03-20T08:23:01.301Z,10.43
2018-03-20T08:25:28.768Z,15.30
2018-03-20T08:27:56.217Z,9.90
2018-03-20T08:30:23.853Z,8.13
2018-03-20T08:32:51.305Z,20.43
2018-03-20T08:35:18.754Z,10.57
2018-03-20T08:37:46.233Z,6.07
2018-03-20T08:40:13.673Z,6.60
2018-03-20T08:42:41.298Z,6.67
2018-03-20T08:45:08.737Z,9.37
2018-03-20T08:47:36.181Z,5.67
2018-03-20T08:50:03.693Z,7.27
2018-03-20T08:52:31.203Z,6.07
2018-03-20T08:54:58.953Z,6.83
2018-03-20T08:57:26.390Z,7.13
2018-03-20T08:59:53.825Z,5.50
2018-03-20T09:02:21.301Z,8.43
2018-03-20T09:04:48.766Z,6.03
2018-03-20T09:07:16.405Z,12.87
2018-03-20T09:09:43.858Z,6.50
2018-03-20T09:12:11.297Z,5.80
2018-03-20T09:14:38.775Z,27.23
2018-03-20T09:17:06.239Z,13.80
2018-03-20T09:19:33.837Z,6.20
2018-03-20T09:22:01.274Z,9.47
2018-03-20T09:24:28.764Z,7.23
2018-03-20T09:26:56.232Z,5.90
2018-03-20T09:29:23.674Z,5.07
2018-03-20T09:31:51.413Z,5.23
2018-03-20T09:34:18.861Z,5.80
2018-03-20T09:49:47.278Z,13.83
2018-03-20T09:52:14.969Z,8.07
2018-03-20T09:54:42.434Z,9.97
2018-03-20T09:57:09.886Z,9.57
2018-03-20T09:59:37.366Z,16.57
2018-03-20T10:02:04.820Z,15.10
2018-03-20T10:04:32.285Z,18.03
2018-03-20T10:06:59.742Z,17.00
2018-03-20T10:09:27.182Z,19.23
2018-03-20T10:11:54.650Z,11.20
2018-03-20T10:14:22.105Z,18.07
2018-03-20T10:16:49.885Z,20.03
2018-03-20T10:19:17.349Z,11.63
2018-03-20T10:21:44.795Z,11.27
2018-03-20T10:24:12.273Z,15.00
2018-03-20T10:26:39.734Z,17.53
2018-03-20T10:29:07.433Z,21.43
2018-03-20T10:31:34.888Z,22.43
2018-03-20T10:34:02.337Z,18.47
2018-03-20T10:36:29.837Z,17.67
2018-03-20T10:38:57.617Z,19.87
2018-03-20T10:41:25.286Z,18.10
2018-03-20T10:43:52.948Z,18.17
2018-03-20T10:46:20.349Z,18.20
2018-03-20T10:48:47.846Z,18.90
2018-03-20T10:51:15.290Z,22.03
2018-03-20T10:53:42.762Z,29.27
2018-03-20T10:56:10.205Z,23.43
2018-03-20T10:58:37.665Z,26.77
2018-03-20T11:01:05.959Z,21.17
2018-03-20T11:03:33.429Z,22.40
2018-03-20T11:06:00.934Z,23.00
2018-03-20T11:08:28.389Z,25.20
2018-03-20T11:10:56.157Z,23.37
2018-03-20T11:13:23.607Z,28.13
2018-03-20T11:15:51.060Z,26.27
2018-03-20T11:18:18.537Z,22.83
2018-03-20T11:20:45.985Z,27.07
2018-03-20T11:23:13.702Z,23.07
2018-03-20T11:25:41.161Z,24.90
2018-03-20T11:28:08.609Z,21.80
2018-03-20T11:30:36.085Z,25.23
2018-03-20T11:33:03.534Z,24.57
2018-03-20T11:35:31.110Z,28.23
2018-03-20T11:37:58.562Z,20.33
2018-03-20T11:40:26.023Z,21.30
2018-03-20T11:42:53.518Z,25.33
2018-03-20T11:45:20.974Z,23.00
2018-03-20T11:47:48.814Z,19.30
2018-03-20T11:50:16.273Z,23.47
2018-03-20T11:52:43.729Z,26.83
2018-03-20T11:55:11.206Z,20.07
2018-03-20T11:57:38.653Z,27.83
2018-03-20T12:00:06.267Z,32.73
2018-03-20T12:02:33.713Z,25.30
2018-03-20T12:05:01.171Z,24.07
2018-03-20T12:07:28.637Z,22.50
2018-03-20T12:09:56.113Z,27.40
2018-03-20T12:12:23.585Z,24.43
2018-03-20T12:14:51.045Z,28.83
2018-03-20T12:17:18.774Z,27.40
2018-03-20T12:19:46.236Z,22.17
2018-03-20T12:22:13.765Z,20.90
2018-03-20T12:24:41.229Z,30.90
2018-03-20T12:27:08.679Z,26.73
2018-03-20T12:29:36.315Z,28.30
2018-03-20T12:32:03.772Z,30.00
2018-03-20T12:34:31.217Z,21.33
2018-03-20T12:36:58.702Z,34.33
2018-03-20T12:39:26.153Z,26.10
2018-03-20T12:41:53.769Z,23.73
2018-03-20T12:44:21.226Z,26.33
2018-03-20T12:46:48.701Z,32.17
2018-03-20T12:49:16.154Z,32.63
2018-03-20T12:51:43.610Z,26.47
2018-03-20T12:54:11.202Z,20.60
2018-03-20T12:56:38.649Z,32.00
2018-03-20T12:59:06.098Z,27.63
2018-03-20T13:01:33.561Z,26.63
2018-03-20T13:04:01.037Z,27.23
2018-03-20T13:06:28.776Z,26.43
2018-03-20T13:08:56.280Z,22.80
2018-03-20T13:11:23.741Z,30.53
2018-03-20T13:13:51.219Z,26.23
2018-03-20T13:16:18.696Z,23.00
2018-03-20T13:18:46.421Z,26.90
2018-03-20T13:21:13.897Z,19.60
2018-03-20T13:23:41.346Z,25.00
2018-03-20T13:26:08.813Z,23.13
2018-03-20T13:28:36.266Z,15.70
2018-03-20T13:31:03.765Z,18.97
2018-03-20T13:33:31.215Z,24.67
2018-03-20T13:35:58.682Z,19.27
2018-03-20T13:38:26.159Z,14.27
2018-03-20T13:40:53.705Z,24.60
2018-03-20T13:43:21.205Z,15.40
2018-03-20T13:45:48.685Z,20.40
2018-03-20T13:48:16.137Z,31.10
2018-03-20T13:50:43.626Z,18.90
2018-03-20T13:53:16.577Z,23.60
2018-03-20T13:55:44.065Z,23.57
2018-03-20T13:58:11.562Z,23.60
2018-03-20T14:00:39.010Z,14.97
2018-03-20T14:03:06.498Z,19.07
2018-03-20T14:05:33.969Z,28.80
2018-03-20T14:08:01.444Z,20.30
2018-03-20T14:10:28.907Z,21.27
2018-03-20T14:12:56.359Z,21.57
2018-03-20T14:15:23.830Z,15.93
2018-03-20T14:17:51.292Z,23.70
2018-03-20T14:20:19.002Z,21.93
2018-03-20T14:22:46.449Z,13.73
2018-03-20T14:25:13.909Z,12.10
2018-03-20T14:27:41.381Z,12.27
2018-03-20T14:30:08.845Z,11.13
2018-03-20T14:32:36.558Z,10.80
2018-03-20T14:35:04.018Z,9.73
2018-03-20T14:37:31.505Z,13.33
2018-03-20T14:39:58.960Z,12.27
2018-03-20T14:42:26.414Z,16.73
2018-03-20T14:44:53.902Z,8.37
2018-03-20T14:47:21.349Z,10.17
2018-03-20T14:49:48.813Z,8.90
2018-03-20T14:52:16.282Z,10.80
2018-03-20T14:54:43.725Z,9.77
2018-03-20T14:57:11.198Z,10.33
2018-03-20T14:59:38.661Z,12.30
2018-03-20T15:02:06.111Z,10.00
2018-03-20T15:04:33.577Z,12.03
2018-03-20T15:07:01.031Z,19.83
2018-03-20T15:09:28.597Z,13.30
2018-03-20T15:11:56.053Z,11.20
2018-03-20T15:14:23.497Z,11.97
2018-03-20T15:16:50.965Z,10.53
2018-03-20T15:19:18.419Z,8.73
2018-03-20T15:21:45.901Z,11.77
2018-03-20T15:24:13.341Z,12.83
2018-03-20T15:26:40.797Z,7.40
2018-03-20T15:29:08.261Z,13.07
2018-03-20T15:31:35.729Z,7.73
2018-03-20T15:34:03.234Z,12.03
2018-03-20T15:36:30.677Z,8.30
2018-03-20T15:38:58.154Z,7.17
2018-03-20T15:41:25.619Z,13.40
2018-03-20T15:43:53.057Z,8.27
2018-03-20T15:46:20.538Z,10.87
2018-03-20T15:48:47.977Z,8.73
2018-03-20T15:51:15.477Z,8.10
2018-03-20T15:53:42.942Z,9.40
2018-03-20T15:56:10.385Z,7.73
2018-03-20T15:58:38.143Z,11.00
2018-03-20T16:01:05.595Z,11.80
2018-03-20T16:03:33.057Z,18.07
2018-03-20T16:06:00.526Z,9.80
2018-03-20T16:08:28.365Z,8.90
2018-03-20T16:10:55.846Z,11.83
2018-03-20T16:13:23.297Z,10.30
2018-03-20T16:15:50.755Z,10.90
2018-03-20T16:18:18.217Z,9.47
2018-03-20T16:20:48.090Z,8.43
2018-03-20T16:23:22.261Z,13.17
2018-03-20T16:25:49.715Z,7.80
2018-03-20T16:28:17.165Z,10.93
2018-03-20T16:30:44.650Z,8.70
2018-03-20T16:33:12.101Z,12.10
2018-03-20T16:35:39.798Z,11.10
2018-03-20T16:38:07.255Z,10.33
2018-03-20T16:40:34.743Z,8.53
2018-03-20T16:43:02.223Z,11.47
2018-03-20T16:45:29.682Z,14.97
2018-03-20T16:47:57.490Z,11.67
2018-03-20T16:50:24.938Z,11.67
2018-03-20T16:52:52.404Z,12.27
2018-03-20T16:55:19.868Z,8.63
2018-03-20T16:57:47.332Z,11.73
2018-03-20T17:00:14.981Z,8.77
2018-03-20T17:02:42.438Z,16.40
2018-03-20T17:05:09.898Z,17.60
2018-03-20T17:07:37.374Z,9.03
2018-03-20T17:10:04.825Z,10.03
2018-03-20T17:12:32.430Z,9.10
2018-03-20T17:14:59.869Z,11.37
2018-03-20T17:17:27.347Z,8.97
2018-03-20T17:19:54.841Z,11.07
2018-03-20T17:22:22.295Z,10.50
2018-03-20T17:24:50.066Z,8.83
2018-03-20T17:27:17.543Z,11.87
2018-03-20T17:29:45.014Z,8.97
2018-03-20T17:32:12.496Z,12.00
2018-03-20T17:34:40.302Z,19.43
2018-03-20T17:37:08.158Z,9.90
2018-03-20T17:39:35.607Z,10.53
2018-03-20T17:42:03.076Z,9.20
2018-03-20T17:44:30.559Z,19.20
2018-03-20T17:46:58.045Z,10.47
2018-03-20T17:49:26.421Z,9.40
2018-03-20T17:51:53.891Z,19.30
2018-03-20T17:54:21.386Z,19.70
2018-03-20T17:56:48.865Z,12.03
2018-03-20T17:59:16.307Z,9.30
2018-03-20T18:01:43.865Z,10.17
2018-03-20T18:04:11.323Z,25.80
2018-03-20T18:06:38.798Z,14.43
2018-03-20T18:09:06.266Z,9.67
2018-03-20T18:11:33.723Z,13.87
2018-03-20T18:14:01.206Z,15.37
2018-03-20T18:16:28.704Z,9.33
2018-03-20T18:18:56.162Z,12.23
2018-03-20T18:21:23.645Z,13.00
2018-03-20T18:23:51.113Z,11.27
2018-03-20T18:26:18.785Z,8.83
2018-03-20T18:28:46.370Z,12.23
2018-03-20T18:31:13.829Z,12.53
2018-03-20T18:33:41.307Z,14.07
2018-03-20T18:36:08.798Z,13.33
2018-03-20T18:38:36.293Z,15.30
2018-03-20T18:41:03.747Z,10.30
2018-03-20T18:43:31.197Z,13.47
2018-03-20T18:45:58.669Z,13.77
2018-03-20T18:48:26.130Z,10.50
2018-03-20T18:50:53.793Z,9.23
2018-03-20T18:53:21.238Z,16.90
2018-03-20T18:55:48.679Z,8.63
2018-03-20T18:58:16.140Z,8.17
2018-03-20T19:00:43.590Z,14.87
2018-03-20T19:03:11.074Z,14.73
2018-03-20T19:05:38.540Z,11.37
2018-03-20T19:08:06.018Z,14.40
2018-03-20T19:10:33.513Z,9.33
2018-03-20T19:13:00.962Z,11.97
2018-03-20T19:15:28.578Z,21.93
2018-03-20T19:17:56.049Z,23.13
2018-03-20T19:20:23.501Z,11.73
2018-03-20T19:22:50.988Z,11.10
2018-03-20T19:25:18.454Z,12.60
2018-03-20T19:27:45.946Z,15.93
2018-03-20T19:30:13.394Z,19.87
2018-03-20T19:32:40.865Z,12.90
2018-03-20T19:35:08.362Z,13.30
2018-03-20T19:37:35.830Z,12.97
2018-03-20T19:40:04.109Z,14.77
2018-03-20T19:42:31.558Z,8.50
2018-03-20T19:44:59.826Z,13.37
2018-03-20T19:47:28.555Z,13.10
2018-03-20T19:49:56.018Z,10.33
2018-03-20T19:52:23.492Z,15.00
2018-03-20T19:54:50.952Z,15.73
2018-03-20T19:57:18.409Z,11.90
2018-03-20T19:59:45.891Z,16.50
2018-03-20T20:02:13.342Z,13.47
2018-03-20T20:04:40.868Z,14.47
2018-03-20T20:07:08.327Z,10.10
2018-03-20T20:09:35.785Z,23.40
2018-03-20T20:12:03.269Z,15.00
2018-03-20T20:14:30.758Z,13.80
2018-03-20T20:16:58.265Z,20.60
2018-03-20T20:19:25.732Z,13.77
2018-03-20T20:21:53.224Z,16.83
2018-03-20T20:24:20.745Z,16.47
2018-03-20T20:26:48.218Z,12.10
2018-03-20T20:29:16.314Z,14.07
2018-03-20T20:31:43.803Z,11.90
2018-03-20T20:34:11.282Z,12.30
2018-03-20T20:36:38.765Z,17.73
2018-03-20T20:39:06.222Z,20.30
2018-03-20T20:41:36.658Z,15.47
2018-03-20T20:44:05.086Z,24.00
2018-03-20T20:46:32.570Z,31.80
2018-03-20T20:49:00.058Z,19.43
2018-03-20T20:51:27.529Z,20.37
2018-03-20T20:53:55.300Z,20.30
2018-03-20T20:56:22.848Z,21.90
2018-03-20T20:58:51.351Z,19.93
2018-03-20T21:01:18.877Z,22.23
2018-03-20T21:03:46.338Z,19.83
2018-03-20T21:06:14.234Z,18.50
2018-03-20T21:08:41.715Z,18.13
2018-03-20T21:11:09.165Z,21.70
2018-03-20T21:13:36.657Z,25.93
2018-03-20T21:16:04.113Z,21.50
2018-03-20T21:18:31.622Z,28.03
2018-03-20T21:20:59.088Z,30.10
2018-03-20T21:23:26.567Z,32.07
2018-03-20T21:25:54.050Z,29.83
2018-03-20T21:28:21.530Z,22.20
2018-03-20T21:30:49.015Z,22.07
2018-03-20T21:33:16.489Z,27.70
2018-03-20T21:35:43.963Z,23.40
2018-03-20T21:38:11.419Z,24.80
2018-03-20T21:40:38.897Z,23.47
2018-03-20T21:43:06.354Z,19.97
2018-03-20T21:45:33.820Z,21.47
2018-03-20T21:48:01.318Z,26.60
2018-03-20T21:50:28.793Z,23.63
2018-03-20T21:52:56.259Z,18.43
2018-03-20T21:55:23.953Z,19.57
2018-03-20T21:57:51.413Z,16.73
2018-03-20T22:00:18.878Z,24.17
2018-03-20T22:02:46.365Z,16.83
2018-03-20T22:05:13.838Z,20.40
2018-03-20T22:07:41.500Z,17.33
2018-03-20T22:10:08.962Z,16.60
2018-03-20T22:12:36.418Z,15.07
2018-03-20T22:15:03.894Z,13.93
2018-03-20T22:17:31.350Z,20.67
2018-03-20T22:19:58.945Z,16.60
2018-03-20T22:22:26.425Z,22.57
2018-03-20T22:24:53.887Z,17.90
2018-03-20T22:27:21.363Z,21.47
2018-03-20T22:29:48.853Z,20.77
2018-03-20T22:32:16.353Z,20.50
2018-03-20T22:34:43.820Z,21.93
2018-03-20T22:37:11.291Z,23.60
2018-03-20T22:39:38.801Z,19.60
2018-03-20T22:42:06.250Z,21.00
2018-03-20T22:44:33.733Z,25.77
2018-03-20T22:47:01.212Z,20.30
2018-03-20T22:49:28.723Z,25.60
2018-03-20T22:51:56.213Z,28.43
2018-03-20T22:54:23.661Z,20.57
2018-03-20T22:56:51.145Z,19.57
2018-03-20T22:59:18.613Z,23.87
2018-03-20T23:01:46.073Z,22.20
2018-03-20T23:04:13.554Z,29.60
2018-03-20T23:06:41.009Z,25.67
2018-03-20T23:09:08.734Z,22.53
2018-03-20T23:11:36.205Z,21.20
2018-03-20T23:14:03.669Z,23.43
2018-03-20T23:16:31.145Z,16.30
2018-03-20T23:18:58.627Z,19.27
2018-03-20T23:21:26.109Z,19.43
2018-03-20T23:23:53.604Z,21.00
2018-03-20T23:26:21.053Z,17.97
2018-03-20T23:28:48.530Z,14.47
2018-03-20T23:31:15.992Z,23.40
2018-03-20T23:33:43.614Z,16.33
2018-03-20T23:36:11.071Z,21.03
2018-03-20T23:38:38.521Z,20.80
2018-03-20T23:41:06.001Z,15.23
2018-03-20T23:43:33.463Z,17.00
2018-03-20T23:46:00.961Z,22.50
2018-03-20T23:48:28.421Z,18.40
2018-03-20T23:50:55.877Z,16.33
2018-03-20T23:53:23.352Z,18.93
2018-03-20T23:55:50.801Z,18.90
2018-03-20T23:58:18.273Z,13.80
